Snyder, Oklahoma
Current Conditions -  °F | °C
As of 10:58 PM on Tuesday 21 Oct 2014 (Local Time) from KLTS Reporting Station
Clear Clear  
Wind Chill: 60°   Ceiling: Unl
Heat Index: 60°   Visibility: 10mi
Dew Point: 52°   Wind: 6mph
Humidity: 73%   Direction: 120°ESE
Pressure: 30.06"   Gusts: NA
Location:  34.66°N, 98.95°W
Report Text: KLTS 220358Z AUTO 12005KT 10SM CLR 16/11 A3006 RMK AO2 SLP170 T01580110 $
Loading
Personal Weather Stations






























Interactive Weather Map
Tropical Storm Tracking
New forecast layout! Learn more

10-Day Weather Forecast

Advertisements
Track Severe Weather on mobile